Time;durP1;ratioP1;P1;durP2;ratioP2;P2;SDS_P1;SDS_P2;PMS_P1;PMS_P2;Temp;Humidity;BMP_temperature;BMP_pressure;BME280_temperature;BME280_humidity;BME280_pressure;Samples;Min_cycle;Max_cycle;Signal;HPM_P1;HPM_P2
2022/08/27 00:01:14;;;;;;;;;;;18.40;99.90;;;;;;5050876;28;19928;-75
2022/08/27 00:03:42;;;;;;;;;;;18.30;99.90;;;;;;5070108;28;20467;-76
2022/08/27 00:06:09;;;;;;;;;;;18.30;99.90;;;;;;5053807;28;19951;-77
2022/08/27 00:08:36;;;;;;;;;;;18.30;99.90;;;;;;5052688;28;19963;-78
2022/08/27 00:11:03;;;;;;;;;;;18.20;99.90;;;;;;5053572;28;20399;-75
2022/08/27 00:13:31;;;;;;;;;;;18.20;99.90;;;;;;5054173;28;19940;-81
2022/08/27 00:15:58;;;;;;;;;;;18.20;99.90;;;;;;5076854;28;19928;-82
2022/08/27 00:18:25;;;;;;;;;;;18.10;99.90;;;;;;5070021;28;19929;-80
2022/08/27 00:20:52;;;;;;;;;;;18.10;99.90;;;;;;5058650;28;19932;-79
2022/08/27 00:23:19;;;;;;;;;;;18.10;99.90;;;;;;5051457;28;20647;-81
2022/08/27 00:25:46;;;;;;;;;;;18.10;99.90;;;;;;5052219;28;20499;-78
2022/08/27 00:28:14;;;;;;;;;;;18.10;99.90;;;;;;5050738;28;20011;-80
2022/08/27 00:30:42;;;;;;;;;;;18.10;99.90;;;;;;5061079;28;20015;-79
2022/08/27 00:33:09;;;;;;;;;;;18.10;99.90;;;;;;5051327;28;20689;-78
2022/08/27 00:35:36;;;;;;;;;;;18.00;99.90;;;;;;5051309;28;20005;-78
2022/08/27 00:38:04;;;;;;;;;;;18.10;99.90;;;;;;5051644;28;19928;-76
2022/08/27 00:40:32;;;;;;;;;;;18.10;99.90;;;;;;5051167;28;20019;-78
2022/08/27 00:43:01;;;;;;;;;;;18.10;99.90;;;;;;5067753;28;19928;-78
2022/08/27 00:45:29;;;;;;;;;;;18.10;99.90;;;;;;5050893;28;20023;-77
2022/08/27 00:47:59;;;;;;;;;;;18.10;99.90;;;;;;5051216;28;19935;-79
2022/08/27 00:50:30;;;;;;;;;;;18.10;99.90;;;;;;5048491;28;19935;-81
2022/08/27 00:52:59;;;;;;;;;;;18.10;99.90;;;;;;5060408;28;20021;-79
2022/08/27 00:55:28;;;;;;;;;;;18.10;99.90;;;;;;5053998;28;19986;-80
2022/08/27 00:57:59;;;;;;;;;;;18.10;99.90;;;;;;5055792;28;19924;-81
2022/08/27 01:00:26;;;;;;;;;;;18.20;99.90;;;;;;5073661;28;20478;-81
2022/08/27 01:02:53;;;;;;;;;;;18.10;99.90;;;;;;5066706;28;19935;-81
2022/08/27 01:05:24;;;;;;;;;;;18.10;99.90;;;;;;5068964;28;19929;-82
2022/08/27 01:07:53;;;;;;;;;;;18.10;99.90;;;;;;5053788;28;20019;-81
2022/08/27 01:10:21;;;;;;;;;;;18.10;99.90;;;;;;5051004;28;19928;-80
2022/08/27 01:12:48;;;;;;;;;;;18.10;99.90;;;;;;5055036;28;19929;-79
2022/08/27 01:15:16;;;;;;;;;;;18.10;99.90;;;;;;5069839;28;20431;-81
2022/08/27 01:17:44;;;;;;;;;;;18.20;99.90;;;;;;5052885;28;20407;-76
2022/08/27 01:20:13;;;;;;;;;;;18.20;99.90;;;;;;5050187;28;20341;-77
2022/08/27 01:22:46;;;;;;;;;;;18.20;99.90;;;;;;5050178;28;19963;-77
2022/08/27 01:25:15;;;;;;;;;;;18.20;99.90;;;;;;5050126;28;19932;-78
2022/08/27 01:27:43;;;;;;;;;;;18.20;99.90;;;;;;5068670;28;20041;-79
2022/08/27 01:30:11;;;;;;;;;;;18.20;99.90;;;;;;5050645;28;20418;-78
2022/08/27 01:32:38;;;;;;;;;;;18.20;99.90;;;;;;5058424;28;19974;-80
2022/08/27 01:35:06;;;;;;;;;;;18.20;99.90;;;;;;5048514;28;20447;-80
2022/08/27 01:37:34;;;;;;;;;;;18.20;99.90;;;;;;5051909;28;20464;-80
2022/08/27 01:40:01;;;;;;;;;;;18.20;99.90;;;;;;5052699;28;20382;-80
2022/08/27 01:42:31;;;;;;;;;;;18.20;99.90;;;;;;5052280;28;19924;-80
2022/08/27 01:45:00;;;;;;;;;;;18.20;99.90;;;;;;5051247;28;19928;-78
2022/08/27 01:47:28;;;;;;;;;;;18.20;99.90;;;;;;5050452;28;19929;-78
2022/08/27 01:49:55;;;;;;;;;;;18.20;99.90;;;;;;5049089;28;20463;-79
2022/08/27 01:52:23;;;;;;;;;;;18.20;99.90;;;;;;5049881;28;19932;-78
2022/08/27 01:54:50;;;;;;;;;;;18.20;99.90;;;;;;5049659;28;19929;-79
2022/08/27 01:57:17;;;;;;;;;;;18.20;99.90;;;;;;5070098;28;19935;-80
2022/08/27 01:59:46;;;;;;;;;;;18.20;99.90;;;;;;5053800;28;19952;-78
2022/08/27 02:02:14;;;;;;;;;;;18.20;99.90;;;;;;5053712;28;20559;-79
2022/08/27 02:04:40;;;;;;;;;;;18.30;99.90;;;;;;5070799;28;19929;-78
2022/08/27 02:07:07;;;;;;;;;;;18.20;99.90;;;;;;5054230;28;19928;-79
2022/08/27 02:09:34;;;;;;;;;;;18.30;99.90;;;;;;5071705;28;20296;-77
2022/08/27 02:12:02;;;;;;;;;;;18.20;99.90;;;;;;5053930;28;20002;-78
2022/08/27 02:14:29;;;;;;;;;;;18.20;99.90;;;;;;5054251;28;19939;-79
2022/08/27 02:16:57;;;;;;;;;;;18.20;99.90;;;;;;5053691;28;19986;-78
2022/08/27 02:19:25;;;;;;;;;;;18.20;99.90;;;;;;5057659;28;20342;-78
2022/08/27 02:21:53;;;;;;;;;;;18.20;99.90;;;;;;5072367;28;20099;-77
2022/08/27 02:24:20;;;;;;;;;;;18.10;99.90;;;;;;5071662;28;19929;-80
2022/08/27 02:26:46;;;;;;;;;;;18.10;99.90;;;;;;5052650;28;19928;-79
2022/08/27 02:29:13;;;;;;;;;;;18.00;99.90;;;;;;5052481;28;20491;-78
2022/08/27 02:31:40;;;;;;;;;;;18.00;99.90;;;;;;5052804;28;20304;-78
2022/08/27 02:34:09;;;;;;;;;;;18.00;99.90;;;;;;5053086;28;20573;-78
2022/08/27 02:36:37;;;;;;;;;;;18.00;99.90;;;;;;5052874;28;19928;-78
2022/08/27 02:39:04;;;;;;;;;;;18.00;99.90;;;;;;5052872;28;20629;-78
2022/08/27 02:41:31;;;;;;;;;;;18.00;99.90;;;;;;5067421;28;19928;-79
2022/08/27 02:43:58;;;;;;;;;;;18.00;99.90;;;;;;5072299;22;19992;-81
2022/08/27 02:46:25;;;;;;;;;;;19.40;99.90;;;;;;5097460;28;19956;-81
2022/08/27 02:48:52;;;;;;;;;;;18.00;99.90;;;;;;5096267;28;19935;-81
2022/08/27 02:51:20;;;;;;;;;;;18.00;99.90;;;;;;5081818;28;19924;-81
2022/08/27 02:53:47;;;;;;;;;;;18.00;99.90;;;;;;5076900;28;20293;-80
2022/08/27 02:56:13;;;;;;;;;;;18.00;99.90;;;;;;5087142;28;19928;-81
2022/08/27 02:58:40;;;;;;;;;;;18.00;99.90;;;;;;5081146;28;19940;-81
2022/08/27 03:01:07;;;;;;;;;;;18.00;99.90;;;;;;5082405;28;19993;-81
2022/08/27 03:03:34;;;;;;;;;;;18.00;99.90;;;;;;5081187;28;19989;-80
2022/08/27 03:06:00;;;;;;;;;;;18.00;99.90;;;;;;5088975;28;20384;-80
2022/08/27 03:08:29;;;;;;;;;;;18.00;99.90;;;;;;5098836;28;19935;-81
2022/08/27 03:10:56;;;;;;;;;;;18.00;99.90;;;;;;5102193;28;19924;-80
2022/08/27 03:13:24;;;;;;;;;;;18.00;99.90;;;;;;5099253;28;19934;-80
2022/08/27 03:15:51;;;;;;;;;;;18.00;99.90;;;;;;5099545;28;19924;-80
2022/08/27 03:18:17;;;;;;;;;;;18.00;99.90;;;;;;5095973;28;19928;-80
2022/08/27 03:20:44;;;;;;;;;;;18.00;99.90;;;;;;5092571;28;19939;-79
2022/08/27 03:23:13;;;;;;;;;;;17.90;99.90;;;;;;5093319;28;19929;-80
2022/08/27 03:25:43;;;;;;;;;;;17.90;99.90;;;;;;5077398;28;19924;-79
2022/08/27 03:28:13;;;;;;;;;;;17.90;99.90;;;;;;5084693;28;19924;-80
2022/08/27 03:30:40;;;;;;;;;;;19.60;99.90;;;;;;5083079;28;19928;-80
2022/08/27 03:33:08;;;;;;;;;;;17.80;99.90;;;;;;5067844;28;20344;-79
2022/08/27 03:35:35;;;;;;;;;;;16.50;99.90;;;;;;5089017;28;19935;-80
2022/08/27 03:38:01;;;;;;;;;;;17.80;99.90;;;;;;5068780;28;19924;-80
2022/08/27 03:40:28;;;;;;;;;;;17.70;99.90;;;;;;5107133;28;19930;-80
2022/08/27 03:42:57;;;;;;;;;;;17.70;99.90;;;;;;5096916;28;19938;-80
2022/08/27 03:45:26;;;;;;;;;;;17.70;99.90;;;;;;5095005;28;19935;-79
2022/08/27 03:47:52;;;;;;;;;;;17.70;99.90;;;;;;5101739;28;20346;-79
2022/08/27 03:50:19;;;;;;;;;;;16.30;99.90;;;;;;5099757;28;19931;-80
2022/08/27 03:52:46;;;;;;;;;;;17.70;99.90;;;;;;5085989;28;19928;-79
2022/08/27 03:55:13;;;;;;;;;;;17.70;99.90;;;;;;5085200;28;19928;-80
2022/08/27 03:57:40;;;;;;;;;;;17.70;99.90;;;;;;5086405;28;19987;-80
2022/08/27 04:00:10;;;;;;;;;;;17.70;99.90;;;;;;5080714;28;19964;-80
2022/08/27 04:02:41;;;;;;;;;;;17.60;99.90;;;;;;5102109;28;19928;-80
2022/08/27 04:05:09;;;;;;;;;;;17.60;99.90;;;;;;5072057;28;19948;-80
2022/08/27 04:07:36;;;;;;;;;;;17.60;99.90;;;;;;5074673;28;19935;-81
2022/08/27 04:10:03;;;;;;;;;;;17.60;99.90;;;;;;5078039;28;19935;-80
2022/08/27 04:12:30;;;;;;;;;;;17.60;99.90;;;;;;5074387;28;20408;-80
2022/08/27 04:14:56;;;;;;;;;;;17.60;99.90;;;;;;5086502;28;19924;-80
2022/08/27 04:17:24;;;;;;;;;;;17.50;99.90;;;;;;5080620;28;20010;-80
2022/08/27 04:19:51;;;;;;;;;;;17.60;99.90;;;;;;5085095;28;20261;-80
2022/08/27 04:22:19;;;;;;;;;;;17.60;99.90;;;;;;5083721;28;19929;-79
2022/08/27 04:24:45;;;;;;;;;;;17.70;99.90;;;;;;5084628;28;20517;-80
2022/08/27 04:27:13;;;;;;;;;;;17.60;99.90;;;;;;5084465;28;19957;-79
2022/08/27 04:29:40;;;;;;;;;;;17.60;99.90;;;;;;5080019;28;19941;-80
2022/08/27 04:32:08;;;;;;;;;;;17.60;99.90;;;;;;5099867;28;20600;-80
2022/08/27 04:34:36;;;;;;;;;;;17.60;99.90;;;;;;5097559;28;20439;-81
2022/08/27 04:37:03;;;;;;;;;;;17.60;99.90;;;;;;5081677;28;19956;-80
2022/08/27 04:39:30;;;;;;;;;;;17.70;99.90;;;;;;5078339;28;19935;-80
2022/08/27 04:41:58;;;;;;;;;;;17.70;99.90;;;;;;5083412;28;19935;-80
2022/08/27 04:44:25;;;;;;;;;;;17.70;99.90;;;;;;5082815;28;19912;-81
2022/08/27 04:46:55;;;;;;;;;;;17.70;99.90;;;;;;5070478;28;19928;-81
2022/08/27 04:49:21;;;;;;;;;;;17.70;99.90;;;;;;5103621;28;20313;-81
2022/08/27 04:51:49;;;;;;;;;;;17.70;99.90;;;;;;5090590;28;20227;-80
2022/08/27 04:54:16;;;;;;;;;;;17.70;99.90;;;;;;5098888;28;19932;-80
2022/08/27 04:56:43;;;;;;;;;;;17.60;99.90;;;;;;5084731;28;19924;-80
2022/08/27 04:59:10;;;;;;;;;;;17.60;99.90;;;;;;5091356;28;19939;-80
2022/08/27 05:01:38;;;;;;;;;;;17.60;99.90;;;;;;5102893;28;19934;-80
2022/08/27 05:04:05;;;;;;;;;;;17.60;99.90;;;;;;5083799;28;19970;-80
2022/08/27 05:06:32;;;;;;;;;;;17.50;99.90;;;;;;5090220;28;20011;-80
2022/08/27 05:09:00;;;;;;;;;;;17.60;99.90;;;;;;5090211;28;19932;-80
2022/08/27 05:11:31;;;;;;;;;;;17.60;99.90;;;;;;5084449;28;19971;-80
2022/08/27 05:13:58;;;;;;;;;;;17.60;99.90;;;;;;5083051;28;19925;-79
2022/08/27 05:16:25;;;;;;;;;;;17.60;99.90;;;;;;5083246;28;19928;-79
2022/08/27 05:18:52;;;;;;;;;;;17.60;99.90;;;;;;5090232;28;20484;-80
2022/08/27 05:21:20;;;;;;;;;;;17.70;99.90;;;;;;5092427;28;19928;-80
2022/08/27 05:23:46;;;;;;;;;;;17.60;99.90;;;;;;5088047;28;19928;-80
2022/08/27 05:26:14;;;;;;;;;;;17.60;99.90;;;;;;5077680;28;19982;-79
2022/08/27 05:28:41;;;;;;;;;;;17.70;99.90;;;;;;5082680;28;19939;-80
2022/08/27 05:31:09;;;;;;;;;;;17.70;99.90;;;;;;5082511;28;19928;-80
2022/08/27 05:33:37;;;;;;;;;;;17.70;99.90;;;;;;5070433;28;19952;-80
2022/08/27 05:36:04;;;;;;;;;;;17.80;99.90;;;;;;5101888;28;19928;-80
2022/08/27 05:38:31;;;;;;;;;;;17.80;99.90;;;;;;5093935;28;19928;-80
2022/08/27 05:41:05;;;;;;;;;;;17.80;99.90;;;;;;5082023;28;19989;-80
2022/08/27 05:43:33;;;;;;;;;;;17.80;99.90;;;;;;5082480;28;19943;-80
2022/08/27 05:46:03;;;;;;;;;;;17.80;99.90;;;;;;5091086;28;19924;-80
2022/08/27 05:48:30;;;;;;;;;;;17.80;99.90;;;;;;5104273;28;20019;-80
2022/08/27 05:50:57;;;;;;;;;;;17.90;99.90;;;;;;5080940;28;19933;-80
2022/08/27 05:53:25;;;;;;;;;;;17.90;99.90;;;;;;5078325;28;19971;-81
2022/08/27 05:55:51;;;;;;;;;;;18.00;99.90;;;;;;5073112;28;19929;-80
2022/08/27 06:01:04;;;;;;;;;;;18.10;99.90;;;;;;5079194;28;19933;-80
2022/08/27 06:03:30;;;;;;;;;;;18.20;99.90;;;;;;5089424;28;19928;-80
2022/08/27 06:06:00;;;;;;;;;;;18.20;99.90;;;;;;5073216;28;20343;-79
2022/08/27 06:08:26;;;;;;;;;;;18.10;99.90;;;;;;5074758;28;19968;-80
2022/08/27 06:10:53;;;;;;;;;;;18.30;99.90;;;;;;5070191;28;19962;-80
2022/08/27 06:13:20;;;;;;;;;;;18.30;99.90;;;;;;5078397;28;19947;-80
2022/08/27 06:15:47;;;;;;;;;;;18.30;99.90;;;;;;5072240;28;19995;-80
2022/08/27 06:18:15;;;;;;;;;;;18.30;99.90;;;;;;5076345;28;19928;-80
2022/08/27 06:20:42;;;;;;;;;;;18.30;99.90;;;;;;5078342;28;19936;-80
2022/08/27 06:23:08;;;;;;;;;;;18.40;99.90;;;;;;5084869;28;19931;-80
2022/08/27 06:25:39;;;;;;;;;;;18.40;99.90;;;;;;5065812;28;19929;-80
2022/08/27 06:28:06;;;;;;;;;;;18.40;99.90;;;;;;5063766;28;19932;-80
2022/08/27 06:30:32;;;;;;;;;;;18.40;99.90;;;;;;5065874;28;20393;-80
2022/08/27 06:32:59;;;;;;;;;;;18.50;99.90;;;;;;5068370;28;20348;-80
2022/08/27 06:35:27;;;;;;;;;;;18.60;99.90;;;;;;5073816;28;19935;-80
2022/08/27 06:37:54;;;;;;;;;;;18.70;99.90;;;;;;5068182;28;19948;-80
2022/08/27 06:40:22;;;;;;;;;;;18.80;99.90;;;;;;5065830;28;20302;-80
2022/08/27 06:42:48;;;;;;;;;;;18.80;99.90;;;;;;5086573;28;19975;-82
2022/08/27 06:45:15;;;;;;;;;;;18.90;99.90;;;;;;5072522;28;19936;-80
2022/08/27 06:47:42;;;;;;;;;;;18.90;99.90;;;;;;5083954;28;19936;-80
2022/08/27 06:50:09;;;;;;;;;;;19.00;99.90;;;;;;5087634;28;19939;-80
2022/08/27 06:52:37;;;;;;;;;;;19.10;99.90;;;;;;5090029;28;20466;-80
2022/08/27 06:55:04;;;;;;;;;;;19.20;99.90;;;;;;5070936;28;19928;-79
2022/08/27 06:57:31;;;;;;;;;;;19.20;99.90;;;;;;5068920;28;19928;-80
2022/08/27 06:59:58;;;;;;;;;;;19.30;99.90;;;;;;5080417;28;19936;-80
2022/08/27 07:02:24;;;;;;;;;;;19.40;99.90;;;;;;5076452;28;19958;-80
2022/08/27 07:04:52;;;;;;;;;;;19.30;99.90;;;;;;5077533;28;19934;-80
2022/08/27 07:07:19;;;;;;;;;;;19.30;99.90;;;;;;5091879;28;19969;-79
2022/08/27 07:09:47;;;;;;;;;;;19.40;99.90;;;;;;5074083;28;19931;-79
2022/08/27 07:12:13;;;;;;;;;;;19.50;99.90;;;;;;5075787;28;19928;-79
2022/08/27 07:14:40;;;;;;;;;;;19.50;99.90;;;;;;5065615;28;20427;-79
2022/08/27 07:17:08;;;;;;;;;;;19.60;99.90;;;;;;5072559;28;19940;-80
2022/08/27 07:19:37;;;;;;;;;;;19.60;99.90;;;;;;5071315;28;19963;-80
2022/08/27 07:22:03;;;;;;;;;;;19.60;99.90;;;;;;5068337;28;19936;-80
2022/08/27 07:24:30;;;;;;;;;;;19.60;99.90;;;;;;5062756;28;19928;-81
2022/08/27 07:26:58;;;;;;;;;;;19.60;99.90;;;;;;5083404;28;19929;-79
2022/08/27 07:29:25;;;;;;;;;;;19.70;99.90;;;;;;5063607;28;19932;-80
2022/08/27 07:31:52;;;;;;;;;;;19.70;99.90;;;;;;5087142;28;19947;-80
2022/08/27 07:34:18;;;;;;;;;;;19.70;99.90;;;;;;5075237;28;19928;-80
2022/08/27 07:36:45;;;;;;;;;;;19.80;99.90;;;;;;5065978;28;20331;-79
2022/08/27 07:39:15;;;;;;;;;;;19.70;99.90;;;;;;5080652;28;19932;-79
2022/08/27 07:44:25;;;;;;;;;;;19.90;99.90;;;;;;5041525;28;19959;-80
2022/08/27 07:46:53;;;;;;;;;;;20.10;99.90;;;;;;5072517;28;19968;-80
2022/08/27 07:49:21;;;;;;;;;;;20.20;99.90;;;;;;5069971;28;20337;-79
2022/08/27 07:51:47;;;;;;;;;;;20.20;99.90;;;;;;5067162;28;19928;-80
2022/08/27 07:54:14;;;;;;;;;;;20.40;99.90;;;;;;5077088;28;20015;-80
2022/08/27 07:56:41;;;;;;;;;;;20.60;99.90;;;;;;5078266;28;19928;-80
2022/08/27 07:59:08;;;;;;;;;;;20.70;99.90;;;;;;5077963;28;19939;-80
2022/08/27 08:01:36;;;;;;;;;;;20.80;99.90;;;;;;5065681;28;19928;-79
2022/08/27 08:04:03;;;;;;;;;;;20.90;99.90;;;;;;5068182;28;19935;-79
2022/08/27 08:06:30;;;;;;;;;;;21.00;99.90;;;;;;5061113;28;19929;-80
2022/08/27 08:08:58;;;;;;;;;;;21.40;99.90;;;;;;5070687;28;20404;-80
2022/08/27 08:11:25;;;;;;;;;;;21.50;99.90;;;;;;5071432;28;19932;-80
2022/08/27 08:13:52;;;;;;;;;;;21.70;99.90;;;;;;5074926;28;20307;-80
2022/08/27 08:16:19;;;;;;;;;;;21.00;99.90;;;;;;5070102;28;19931;-80
2022/08/27 08:18:47;;;;;;;;;;;22.30;99.90;;;;;;5069412;28;19924;-79
2022/08/27 08:21:14;;;;;;;;;;;22.30;99.90;;;;;;5059403;28;20056;-80
2022/08/27 08:23:42;;;;;;;;;;;22.40;99.90;;;;;;5060820;28;20040;-80
2022/08/27 08:26:09;;;;;;;;;;;22.60;99.90;;;;;;5071177;28;19925;-80
2022/08/27 08:28:35;;;;;;;;;;;22.70;99.90;;;;;;5063668;28;19929;-79
2022/08/27 08:31:02;;;;;;;;;;;22.80;99.90;;;;;;5067281;28;19928;-80
2022/08/27 08:33:30;;;;;;;;;;;22.90;99.90;;;;;;5063089;28;20498;-80
2022/08/27 08:36:03;;;;;;;;;;;22.90;99.90;;;;;;5057586;28;19924;-80
2022/08/27 08:38:30;;;;;;;;;;;22.80;99.90;;;;;;5065502;28;19929;-80
2022/08/27 08:40:57;;;;;;;;;;;22.80;99.90;;;;;;5071229;28;19928;-80
2022/08/27 08:43:28;;;;;;;;;;;22.90;99.90;;;;;;5069956;28;20044;-80
2022/08/27 08:45:56;;;;;;;;;;;23.10;99.90;;;;;;5061448;28;19936;-80
2022/08/27 08:48:25;;;;;;;;;;;23.20;99.90;;;;;;5073281;28;19954;-80
2022/08/27 08:50:55;;;;;;;;;;;23.20;99.90;;;;;;5070918;28;19928;-80
2022/08/27 08:53:30;;;;;;;;;;;23.10;99.90;;;;;;5068353;28;19928;-79
2022/08/27 08:56:00;;;;;;;;;;;23.20;99.90;;;;;;5067480;28;20394;-80
2022/08/27 08:58:33;;;;;;;;;;;23.30;99.90;;;;;;5076487;28;19955;-80
2022/08/27 09:01:01;;;;;;;;;;;23.40;99.90;;;;;;5074239;28;19940;-80
2022/08/27 09:03:35;;;;;;;;;;;23.50;99.90;;;;;;5073101;28;19955;-79
2022/08/27 09:06:04;;;;;;;;;;;23.40;99.90;;;;;;5076340;28;20409;-80
2022/08/27 09:08:35;;;;;;;;;;;23.40;99.90;;;;;;5081770;28;19935;-79
2022/08/27 09:11:06;;;;;;;;;;;23.50;99.90;;;;;;5061439;28;19924;-80
2022/08/27 09:13:34;;;;;;;;;;;23.60;99.90;;;;;;5073365;28;20015;-79
2022/08/27 09:16:02;;;;;;;;;;;23.80;99.90;;;;;;5065413;28;19929;-79
2022/08/27 09:18:30;;;;;;;;;;;23.90;99.90;;;;;;5069622;28;19976;-80
2022/08/27 09:20:59;;;;;;;;;;;24.10;99.90;;;;;;5072537;28;20007;-80
2022/08/27 09:23:31;;;;;;;;;;;24.10;99.90;;;;;;5085796;28;19928;-80
2022/08/27 09:25:59;;;;;;;;;;;24.20;99.90;;;;;;5066037;28;19924;-80
2022/08/27 09:31:13;;;;;;;;;;;24.20;99.90;;;;;;5056513;28;19928;-81
2022/08/27 09:33:40;;;;;;;;;;;24.30;99.90;;;;;;5062880;28;19962;-80
2022/08/27 09:36:09;;;;;;;;;;;24.30;99.90;;;;;;5062838;28;19928;-80
2022/08/27 09:38:36;;;;;;;;;;;24.40;99.90;;;;;;5057445;28;20024;-80
2022/08/27 09:41:09;;;;;;;;;;;24.60;99.90;;;;;;5074801;28;19934;-80
2022/08/27 09:43:38;;;;;;;;;;;24.60;99.90;;;;;;5074661;28;20006;-79
2022/08/27 09:46:06;;;;;;;;;;;24.70;99.90;;;;;;5084522;28;19960;-79
2022/08/27 09:48:33;;;;;;;;;;;24.80;99.90;;;;;;5087789;28;21633;-80
2022/08/27 09:51:02;;;;;;;;;;;24.80;99.90;;;;;;5072958;28;19974;-80
2022/08/27 09:53:30;;;;;;;;;;;24.50;99.90;;;;;;5074213;28;19956;-80
2022/08/27 09:55:58;;;;;;;;;;;24.40;99.90;;;;;;5074113;28;19928;-80
2022/08/27 09:58:28;;;;;;;;;;;24.20;99.90;;;;;;5076132;28;19932;-80
2022/08/27 10:00:59;;;;;;;;;;;24.10;99.90;;;;;;5070452;28;19970;-80
2022/08/27 10:03:26;;;;;;;;;;;24.30;99.90;;;;;;5068897;28;19982;-80
2022/08/27 10:05:54;;;;;;;;;;;24.40;99.90;;;;;;5085767;28;19928;-80
2022/08/27 10:08:23;;;;;;;;;;;24.70;99.90;;;;;;5054455;28;19943;-81
2022/08/27 10:10:53;;;;;;;;;;;24.90;99.90;;;;;;5070006;28;19973;-80
2022/08/27 10:13:23;;;;;;;;;;;25.10;99.90;;;;;;5065372;28;19925;-80
2022/08/27 10:16:08;;;;;;;;;;;25.40;99.90;;;;;;5066444;28;19928;-80
2022/08/27 10:18:40;;;;;;;;;;;25.60;99.90;;;;;;5067071;28;19928;-79
2022/08/27 10:21:12;;;;;;;;;;;25.90;99.90;;;;;;5060317;28;20043;-80
2022/08/27 10:23:42;;;;;;;;;;;26.10;99.90;;;;;;5074975;28;19939;-80
2022/08/27 10:26:12;;;;;;;;;;;26.20;99.90;;;;;;5072677;28;20002;-79
2022/08/27 10:28:43;;;;;;;;;;;26.40;99.90;;;;;;5071929;28;19925;-79
2022/08/27 10:31:18;;;;;;;;;;;26.60;99.90;;;;;;5067294;28;20038;-80
2022/08/27 10:33:49;;;;;;;;;;;26.70;99.90;;;;;;5081875;28;20301;-81
2022/08/27 10:36:23;;;;;;;;;;;26.90;99.90;;;;;;5093330;28;20003;-80
2022/08/27 10:38:54;;;;;;;;;;;27.10;99.90;;;;;;5082877;28;19934;-80
2022/08/27 10:41:23;;;;;;;;;;;27.10;99.90;;;;;;5087836;28;19924;-80
2022/08/27 10:44:05;;;;;;;;;;;27.20;99.90;;;;;;5071475;28;19929;-80
2022/08/27 10:46:41;;;;;;;;;;;27.30;99.90;;;;;;5072038;28;20429;-80
2022/08/27 10:49:11;;;;;;;;;;;27.50;99.90;;;;;;5090120;28;19967;-80
2022/08/27 10:51:44;;;;;;;;;;;27.50;99.90;;;;;;5065741;28;19928;-80
2022/08/27 10:54:15;;;;;;;;;;;27.50;99.90;;;;;;5070967;28;19929;-81
2022/08/27 10:56:46;;;;;;;;;;;27.60;99.90;;;;;;5082160;28;21206;-80
2022/08/27 10:59:18;;;;;;;;;;;27.80;99.90;;;;;;5077547;28;19935;-81
2022/08/27 11:01:49;;;;;;;;;;;27.80;99.90;;;;;;5080544;28;19935;-80
2022/08/27 11:04:18;;;;;;;;;;;27.70;99.90;;;;;;5091451;28;20439;-81
2022/08/27 11:06:48;;;;;;;;;;;27.70;99.90;;;;;;5094122;28;20052;-80
2022/08/27 11:09:17;;;;;;;;;;;27.80;99.90;;;;;;5083961;28;19925;-80
2022/08/27 11:11:45;;;;;;;;;;;27.80;99.90;;;;;;5082360;28;19935;-80
2022/08/27 11:14:16;;;;;;;;;;;27.60;99.90;;;;;;5085003;28;19936;-80
2022/08/27 11:16:45;;;;;;;;;;;27.60;99.90;;;;;;5083715;28;19942;-80
2022/08/27 11:19:17;;;;;;;;;;;27.60;99.90;;;;;;5084753;28;19940;-80
2022/08/27 11:21:46;;;;;;;;;;;27.60;99.90;;;;;;5079394;28;19929;-80
2022/08/27 11:24:17;;;;;;;;;;;27.60;99.90;;;;;;5084907;28;19928;-81
2022/08/27 11:26:44;;;;;;;;;;;27.60;99.90;;;;;;5079122;28;20015;-80
2022/08/27 11:29:16;;;;;;;;;;;27.50;99.90;;;;;;5069379;28;20386;-79
2022/08/27 11:31:46;;;;;;;;;;;27.60;99.90;;;;;;5064411;28;20005;-79
2022/08/27 11:34:19;;;;;;;;;;;27.60;99.90;;;;;;5085428;28;19989;-80
2022/08/27 11:37:01;;;;;;;;;;;27.70;99.90;;;;;;5075128;28;20309;-81
2022/08/27 11:39:39;;;;;;;;;;;27.80;99.90;;;;;;5075472;28;19968;-81
2022/08/27 11:42:08;;;;;;;;;;;27.80;99.90;;;;;;5083289;28;19931;-81
2022/08/27 11:44:40;;;;;;;;;;;27.90;99.90;;;;;;5069449;28;19929;-81
2022/08/27 11:47:09;;;;;;;;;;;27.90;99.90;;;;;;5066587;28;19933;-81
2022/08/27 11:49:43;;;;;;;;;;;28.00;99.90;;;;;;5081499;28;19928;-80
2022/08/27 11:52:10;;;;;;;;;;;28.00;99.90;;;;;;5076682;28;19959;-79
2022/08/27 11:54:46;;;;;;;;;;;28.00;99.90;;;;;;5067739;28;19936;-78
2022/08/27 11:57:14;;;;;;;;;;;28.10;99.90;;;;;;5064437;28;19928;-78
2022/08/27 11:59:42;;;;;;;;;;;28.10;99.90;;;;;;5056836;28;20095;-78
2022/08/27 12:02:17;;;;;;;;;;;28.10;99.90;;;;;;5074637;28;20009;-79
2022/08/27 12:04:47;;;;;;;;;;;28.20;99.90;;;;;;5065837;28;19935;-78
2022/08/27 12:07:28;;;;;;;;;;;28.30;99.90;;;;;;5078275;28;19928;-79
2022/08/27 12:10:01;;;;;;;;;;;28.30;99.90;;;;;;5073625;28;19936;-78
2022/08/27 12:12:33;;;;;;;;;;;28.30;99.90;;;;;;5072545;28;19929;-79
2022/08/27 12:15:03;;;;;;;;;;;28.20;99.90;;;;;;5065724;28;19947;-79
2022/08/27 12:17:35;;;;;;;;;;;28.10;99.90;;;;;;5079292;28;19981;-79
2022/08/27 12:20:08;;;;;;;;;;;28.00;99.90;;;;;;5060026;28;20000;-79
2022/08/27 12:25:24;;;;;;;;;;;28.00;99.90;;;;;;5062792;28;19947;-80
2022/08/27 12:27:55;;;;;;;;;;;28.10;99.90;;;;;;5065627;28;19928;-79
2022/08/27 12:30:26;;;;;;;;;;;28.00;99.90;;;;;;5072122;28;19924;-79
2022/08/27 12:32:53;;;;;;;;;;;27.80;99.90;;;;;;5064730;28;19928;-79
2022/08/27 12:35:23;;;;;;;;;;;27.60;99.90;;;;;;5067220;28;19933;-79
2022/08/27 12:37:52;;;;;;;;;;;27.40;99.90;;;;;;5069188;28;19985;-79
2022/08/27 12:40:20;;;;;;;;;;;27.20;99.90;;;;;;5080926;28;19931;-80
2022/08/27 12:42:47;;;;;;;;;;;27.00;99.90;;;;;;5062370;28;19939;-79
2022/08/27 12:45:18;;;;;;;;;;;26.90;99.90;;;;;;5063514;28;19935;-79
2022/08/27 12:47:45;;;;;;;;;;;26.80;99.90;;;;;;5065002;28;20001;-79
2022/08/27 12:50:12;;;;;;;;;;;26.70;99.90;;;;;;5079764;28;20286;-79
2022/08/27 12:52:49;;;;;;;;;;;26.60;99.90;;;;;;5068896;28;19924;-79
2022/08/27 12:55:20;;;;;;;;;;;26.60;99.90;;;;;;5065126;28;19936;-79
2022/08/27 12:57:52;;;;;;;;;;;26.50;99.90;;;;;;5058396;28;19932;-79
2022/08/27 13:00:19;;;;;;;;;;;26.40;99.90;;;;;;5067349;28;20461;-79
2022/08/27 13:03:07;;;;;;;;;;;26.30;99.90;;;;;;5070075;28;19981;-79
2022/08/27 13:05:37;;;;;;;;;;;26.30;99.90;;;;;;5081861;28;19932;-79
2022/08/27 13:08:05;;;;;;;;;;;26.20;99.90;;;;;;5089325;28;19963;-79
2022/08/27 13:10:32;;;;;;;;;;;26.10;99.90;;;;;;5075485;28;20014;-79
2022/08/27 13:13:02;;;;;;;;;;;26.00;99.90;;;;;;5089288;28;19924;-79
2022/08/27 13:15:28;;;;;;;;;;;25.90;99.90;;;;;;5071013;28;19978;-79
2022/08/27 13:17:55;;;;;;;;;;;25.70;99.90;;;;;;5094343;28;19924;-79
2022/08/27 13:20:23;;;;;;;;;;;25.50;99.90;;;;;;5070013;28;20500;-79
2022/08/27 13:22:50;;;;;;;;;;;25.40;99.90;;;;;;5068951;28;20009;-79
2022/08/27 13:25:23;;;;;;;;;;;25.30;99.90;;;;;;5055171;28;20441;-79
2022/08/27 13:27:52;;;;;;;;;;;25.20;99.90;;;;;;5068143;28;20453;-79
2022/08/27 13:30:18;;;;;;;;;;;24.90;99.90;;;;;;5072360;28;20428;-79
2022/08/27 13:32:45;;;;;;;;;;;24.80;99.90;;;;;;5065148;28;19931;-79
2022/08/27 13:35:12;;;;;;;;;;;24.70;99.90;;;;;;5062757;28;19981;-79
2022/08/27 13:37:41;;;;;;;;;;;24.80;99.90;;;;;;5074538;28;20273;-79
2022/08/27 13:40:09;;;;;;;;;;;24.80;99.90;;;;;;5073219;28;19929;-79
2022/08/27 13:42:39;;;;;;;;;;;24.80;99.90;;;;;;5072542;28;19929;-79
2022/08/27 13:45:06;;;;;;;;;;;24.90;99.90;;;;;;5072129;28;19925;-79
2022/08/27 13:47:40;;;;;;;;;;;24.90;99.90;;;;;;5075265;28;19985;-79
2022/08/27 13:50:07;;;;;;;;;;;24.90;99.90;;;;;;5073310;28;19928;-79
2022/08/27 13:52:35;;;;;;;;;;;24.90;99.90;;;;;;5065905;28;20476;-79
2022/08/27 13:55:05;;;;;;;;;;;24.70;99.90;;;;;;5067055;28;19935;-79
2022/08/27 13:57:39;;;;;;;;;;;24.60;99.90;;;;;;5061287;28;20351;-79
2022/08/27 14:00:14;;;;;;;;;;;24.60;99.90;;;;;;5072643;28;19935;-79
2022/08/27 14:02:41;;;;;;;;;;;24.70;99.90;;;;;;5071908;28;19928;-79
2022/08/27 14:05:10;;;;;;;;;;;24.70;99.90;;;;;;5083937;28;20331;-78
2022/08/27 14:07:38;;;;;;;;;;;24.70;99.90;;;;;;5076755;28;20443;-78
2022/08/27 14:10:06;;;;;;;;;;;24.70;99.90;;;;;;5080980;28;19928;-78
2022/08/27 14:12:34;;;;;;;;;;;24.70;99.90;;;;;;5071520;28;19929;-78
2022/08/27 14:15:12;;;;;;;;;;;24.80;99.90;;;;;;5071195;28;19932;-78
2022/08/27 14:17:41;;;;;;;;;;;24.90;99.90;;;;;;5074188;28;20305;-78
2022/08/27 14:20:08;;;;;;;;;;;24.90;99.90;;;;;;5075754;28;19928;-78
2022/08/27 14:22:35;;;;;;;;;;;24.90;99.90;;;;;;5078827;28;19940;-79
2022/08/27 14:25:02;;;;;;;;;;;24.80;99.90;;;;;;5075501;28;19929;-80
2022/08/27 14:27:28;;;;;;;;;;;24.80;99.90;;;;;;5090806;28;19931;-80
2022/08/27 14:29:55;;;;;;;;;;;24.70;99.90;;;;;;5077467;28;19942;-78
2022/08/27 14:32:22;;;;;;;;;;;24.70;99.90;;;;;;5077465;28;19928;-78
2022/08/27 14:34:50;;;;;;;;;;;24.70;99.90;;;;;;5069992;28;19928;-78